sensor_id;sensor_type;location;lat;lon;timestamp;P1;durP1;ratioP1;P2;durP2;ratioP2
8050;SDS011;4068;42.158;24.732;2023-04-01T00:01:05;13.50;;;8.32;;
8050;SDS011;4068;42.158;24.732;2023-04-01T00:03:31;15.85;;;9.18;;
8050;SDS011;4068;42.158;24.732;2023-04-01T00:05:58;13.68;;;8.75;;
8050;SDS011;4068;42.158;24.732;2023-04-01T00:08:24;15.63;;;9.07;;
8050;SDS011;4068;42.158;24.732;2023-04-01T00:10:51;12.30;;;8.60;;
8050;SDS011;4068;42.158;24.732;2023-04-01T00:13:17;15.00;;;9.77;;
8050;SDS011;4068;42.158;24.732;2023-04-01T00:15:43;24.17;;;9.95;;
8050;SDS011;4068;42.158;24.732;2023-04-01T00:18:09;16.35;;;9.93;;
8050;SDS011;4068;42.158;24.732;2023-04-01T00:20:35;21.50;;;10.07;;
8050;SDS011;4068;42.158;24.732;2023-04-01T00:23:01;16.70;;;9.68;;
8050;SDS011;4068;42.158;24.732;2023-04-01T00:25:27;17.35;;;9.82;;
8050;SDS011;4068;42.158;24.732;2023-04-01T00:27:53;15.80;;;10.35;;
8050;SDS011;4068;42.158;24.732;2023-04-01T00:30:19;17.77;;;9.90;;
8050;SDS011;4068;42.158;24.732;2023-04-01T00:32:45;18.67;;;9.98;;
8050;SDS011;4068;42.158;24.732;2023-04-01T00:35:10;17.45;;;10.13;;
8050;SDS011;4068;42.158;24.732;2023-04-01T00:37:37;16.17;;;9.48;;
8050;SDS011;4068;42.158;24.732;2023-04-01T00:40:06;22.02;;;9.63;;
8050;SDS011;4068;42.158;24.732;2023-04-01T00:42:32;18.77;;;10.05;;
8050;SDS011;4068;42.158;24.732;2023-04-01T00:44:57;14.13;;;9.30;;
8050;SDS011;4068;42.158;24.732;2023-04-01T00:47:23;15.65;;;9.38;;
8050;SDS011;4068;42.158;24.732;2023-04-01T00:49:51;17.83;;;10.05;;
8050;SDS011;4068;42.158;24.732;2023-04-01T00:52:20;15.00;;;9.63;;
8050;SDS011;4068;42.158;24.732;2023-04-01T00:54:49;20.65;;;10.25;;
8050;SDS011;4068;42.158;24.732;2023-04-01T00:57:20;17.95;;;10.23;;
8050;SDS011;4068;42.158;24.732;2023-04-01T00:59:53;13.75;;;9.35;;
8050;SDS011;4068;42.158;24.732;2023-04-01T01:02:20;17.45;;;10.27;;
8050;SDS011;4068;42.158;24.732;2023-04-01T01:04:45;15.80;;;11.00;;
8050;SDS011;4068;42.158;24.732;2023-04-01T01:09:42;17.80;;;10.70;;
8050;SDS011;4068;42.158;24.732;2023-04-01T01:12:14;18.90;;;10.25;;
8050;SDS011;4068;42.158;24.732;2023-04-01T01:25:38;17.67;;;10.25;;
8050;SDS011;4068;42.158;24.732;2023-04-01T01:36:36;14.00;;;9.77;;
8050;SDS011;4068;42.158;24.732;2023-04-01T01:39:05;18.30;;;10.00;;
8050;SDS011;4068;42.158;24.732;2023-04-01T01:41:32;14.63;;;9.27;;
8050;SDS011;4068;42.158;24.732;2023-04-01T01:43:59;18.48;;;9.55;;
8050;SDS011;4068;42.158;24.732;2023-04-01T01:46:29;19.40;;;9.73;;
8050;SDS011;4068;42.158;24.732;2023-04-01T01:48:55;17.15;;;9.73;;
8050;SDS011;4068;42.158;24.732;2023-04-01T01:51:24;13.93;;;10.05;;
8050;SDS011;4068;42.158;24.732;2023-04-01T01:53:52;14.60;;;10.00;;
8050;SDS011;4068;42.158;24.732;2023-04-01T01:56:18;16.98;;;10.02;;
8050;SDS011;4068;42.158;24.732;2023-04-01T01:58:48;16.90;;;10.25;;
8050;SDS011;4068;42.158;24.732;2023-04-01T02:01:17;17.35;;;10.25;;
8050;SDS011;4068;42.158;24.732;2023-04-01T02:03:46;17.40;;;10.07;;
8050;SDS011;4068;42.158;24.732;2023-04-01T02:06:14;15.73;;;9.73;;
8050;SDS011;4068;42.158;24.732;2023-04-01T02:08:44;17.08;;;10.73;;
8050;SDS011;4068;42.158;24.732;2023-04-01T02:11:17;21.33;;;10.10;;
8050;SDS011;4068;42.158;24.732;2023-04-01T02:16:35;18.33;;;10.82;;
8050;SDS011;4068;42.158;24.732;2023-04-01T02:19:04;17.15;;;10.07;;
8050;SDS011;4068;42.158;24.732;2023-04-01T02:21:34;17.92;;;9.88;;
8050;SDS011;4068;42.158;24.732;2023-04-01T02:24:03;12.38;;;9.20;;
8050;SDS011;4068;42.158;24.732;2023-04-01T02:26:31;13.45;;;10.07;;
8050;SDS011;4068;42.158;24.732;2023-04-01T02:28:56;16.83;;;9.88;;
8050;SDS011;4068;42.158;24.732;2023-04-01T02:31:24;16.08;;;10.23;;
8050;SDS011;4068;42.158;24.732;2023-04-01T02:33:50;20.40;;;9.82;;
8050;SDS011;4068;42.158;24.732;2023-04-01T02:36:16;16.73;;;10.15;;
8050;SDS011;4068;42.158;24.732;2023-04-01T02:38:42;19.73;;;10.70;;
8050;SDS011;4068;42.158;24.732;2023-04-01T02:41:11;18.70;;;10.45;;
8050;SDS011;4068;42.158;24.732;2023-04-01T02:43:56;16.67;;;10.20;;
8050;SDS011;4068;42.158;24.732;2023-04-01T02:46:23;21.35;;;11.63;;
8050;SDS011;4068;42.158;24.732;2023-04-01T02:48:49;16.33;;;11.47;;
8050;SDS011;4068;42.158;24.732;2023-04-01T02:51:15;19.60;;;12.90;;
8050;SDS011;4068;42.158;24.732;2023-04-01T02:53:40;17.80;;;12.77;;
8050;SDS011;4068;42.158;24.732;2023-04-01T02:56:06;21.37;;;11.77;;
8050;SDS011;4068;42.158;24.732;2023-04-01T02:58:31;19.42;;;12.25;;
8050;SDS011;4068;42.158;24.732;2023-04-01T03:00:57;34.17;;;17.17;;
8050;SDS011;4068;42.158;24.732;2023-04-01T03:03:22;26.48;;;14.68;;
8050;SDS011;4068;42.158;24.732;2023-04-01T03:05:48;24.70;;;13.65;;
8050;SDS011;4068;42.158;24.732;2023-04-01T03:08:13;23.98;;;13.07;;
8050;SDS011;4068;42.158;24.732;2023-04-01T03:10:39;24.85;;;14.18;;
8050;SDS011;4068;42.158;24.732;2023-04-01T03:13:04;24.00;;;14.15;;
8050;SDS011;4068;42.158;24.732;2023-04-01T03:15:30;22.42;;;14.32;;
8050;SDS011;4068;42.158;24.732;2023-04-01T03:17:55;30.08;;;13.82;;
8050;SDS011;4068;42.158;24.732;2023-04-01T03:20:21;23.17;;;14.07;;
8050;SDS011;4068;42.158;24.732;2023-04-01T03:22:46;21.83;;;13.18;;
8050;SDS011;4068;42.158;24.732;2023-04-01T03:25:12;21.90;;;14.13;;
8050;SDS011;4068;42.158;24.732;2023-04-01T03:27:37;30.30;;;13.77;;
8050;SDS011;4068;42.158;24.732;2023-04-01T03:30:03;22.13;;;14.10;;
8050;SDS011;4068;42.158;24.732;2023-04-01T03:32:30;26.10;;;14.07;;
8050;SDS011;4068;42.158;24.732;2023-04-01T03:34:56;37.17;;;15.85;;
8050;SDS011;4068;42.158;24.732;2023-04-01T03:37:22;33.65;;;15.15;;
8050;SDS011;4068;42.158;24.732;2023-04-01T03:39:47;30.40;;;14.40;;
8050;SDS011;4068;42.158;24.732;2023-04-01T03:42:13;28.23;;;15.93;;
8050;SDS011;4068;42.158;24.732;2023-04-01T03:44:38;21.27;;;14.05;;
8050;SDS011;4068;42.158;24.732;2023-04-01T03:47:04;31.50;;;14.35;;
8050;SDS011;4068;42.158;24.732;2023-04-01T03:49:29;30.23;;;14.60;;
8050;SDS011;4068;42.158;24.732;2023-04-01T03:51:57;22.88;;;14.48;;
8050;SDS011;4068;42.158;24.732;2023-04-01T03:54:22;22.87;;;13.33;;
8050;SDS011;4068;42.158;24.732;2023-04-01T03:56:48;26.25;;;14.10;;
8050;SDS011;4068;42.158;24.732;2023-04-01T03:59:13;27.38;;;14.05;;
8050;SDS011;4068;42.158;24.732;2023-04-01T04:01:38;26.20;;;13.27;;
8050;SDS011;4068;42.158;24.732;2023-04-01T04:04:04;23.58;;;13.05;;
8050;SDS011;4068;42.158;24.732;2023-04-01T04:06:30;24.02;;;12.25;;
8050;SDS011;4068;42.158;24.732;2023-04-01T04:08:56;24.60;;;12.30;;
8050;SDS011;4068;42.158;24.732;2023-04-01T04:11:22;25.35;;;12.27;;
8050;SDS011;4068;42.158;24.732;2023-04-01T04:13:48;21.57;;;12.77;;
8050;SDS011;4068;42.158;24.732;2023-04-01T04:16:14;26.65;;;12.30;;
8050;SDS011;4068;42.158;24.732;2023-04-01T04:18:40;23.48;;;11.55;;
8050;SDS011;4068;42.158;24.732;2023-04-01T04:21:06;18.88;;;10.73;;
8050;SDS011;4068;42.158;24.732;2023-04-01T04:23:32;17.13;;;10.73;;
8050;SDS011;4068;42.158;24.732;2023-04-01T04:26:03;20.50;;;10.73;;
8050;SDS011;4068;42.158;24.732;2023-04-01T04:28:30;22.48;;;11.27;;
8050;SDS011;4068;42.158;24.732;2023-04-01T04:30:56;18.45;;;10.75;;
8050;SDS011;4068;42.158;24.732;2023-04-01T04:33:22;20.98;;;9.85;;
8050;SDS011;4068;42.158;24.732;2023-04-01T04:35:48;17.65;;;9.52;;
8050;SDS011;4068;42.158;24.732;2023-04-01T04:38:15;14.70;;;9.15;;
8050;SDS011;4068;42.158;24.732;2023-04-01T04:40:41;16.38;;;9.25;;
8050;SDS011;4068;42.158;24.732;2023-04-01T04:43:09;17.00;;;9.63;;
8050;SDS011;4068;42.158;24.732;2023-04-01T04:45:35;14.00;;;8.77;;
8050;SDS011;4068;42.158;24.732;2023-04-01T04:48:01;13.90;;;8.93;;
8050;SDS011;4068;42.158;24.732;2023-04-01T04:50:26;16.65;;;9.15;;
8050;SDS011;4068;42.158;24.732;2023-04-01T04:52:53;17.27;;;8.30;;
8050;SDS011;4068;42.158;24.732;2023-04-01T04:55:18;11.75;;;7.57;;
8050;SDS011;4068;42.158;24.732;2023-04-01T04:57:44;19.73;;;8.18;;
8050;SDS011;4068;42.158;24.732;2023-04-01T05:00:10;27.92;;;12.18;;
8050;SDS011;4068;42.158;24.732;2023-04-01T05:02:36;43.22;;;16.75;;
8050;SDS011;4068;42.158;24.732;2023-04-01T05:05:01;43.28;;;20.13;;
8050;SDS011;4068;42.158;24.732;2023-04-01T05:07:27;57.42;;;23.80;;
8050;SDS011;4068;42.158;24.732;2023-04-01T05:09:52;50.58;;;22.95;;
8050;SDS011;4068;42.158;24.732;2023-04-01T05:12:18;35.17;;;16.65;;
8050;SDS011;4068;42.158;24.732;2023-04-01T05:14:43;24.58;;;13.52;;
8050;SDS011;4068;42.158;24.732;2023-04-01T05:17:09;23.83;;;12.10;;
8050;SDS011;4068;42.158;24.732;2023-04-01T05:19:35;21.35;;;10.70;;
8050;SDS011;4068;42.158;24.732;2023-04-01T05:22:00;29.48;;;12.10;;
8050;SDS011;4068;42.158;24.732;2023-04-01T05:24:26;28.92;;;12.02;;
8050;SDS011;4068;42.158;24.732;2023-04-01T05:26:51;22.90;;;12.25;;
8050;SDS011;4068;42.158;24.732;2023-04-01T05:29:17;24.45;;;11.70;;
8050;SDS011;4068;42.158;24.732;2023-04-01T05:31:42;22.17;;;12.35;;
8050;SDS011;4068;42.158;24.732;2023-04-01T05:34:07;26.73;;;12.45;;
8050;SDS011;4068;42.158;24.732;2023-04-01T05:36:33;25.42;;;12.35;;
8050;SDS011;4068;42.158;24.732;2023-04-01T05:38:59;23.08;;;12.63;;
8050;SDS011;4068;42.158;24.732;2023-04-01T05:41:25;23.48;;;13.23;;
8050;SDS011;4068;42.158;24.732;2023-04-01T05:43:50;25.08;;;12.63;;
8050;SDS011;4068;42.158;24.732;2023-04-01T05:46:16;29.85;;;13.25;;
8050;SDS011;4068;42.158;24.732;2023-04-01T05:48:41;21.38;;;11.48;;
8050;SDS011;4068;42.158;24.732;2023-04-01T05:51:11;20.95;;;11.27;;
8050;SDS011;4068;42.158;24.732;2023-04-01T05:53:40;22.63;;;10.82;;
8050;SDS011;4068;42.158;24.732;2023-04-01T05:56:05;31.88;;;11.00;;
8050;SDS011;4068;42.158;24.732;2023-04-01T05:58:33;18.98;;;10.43;;
8050;SDS011;4068;42.158;24.732;2023-04-01T06:01:16;20.90;;;11.05;;
8050;SDS011;4068;42.158;24.732;2023-04-01T06:03:43;24.50;;;11.95;;
8050;SDS011;4068;42.158;24.732;2023-04-01T06:06:16;33.75;;;13.57;;
8050;SDS011;4068;42.158;24.732;2023-04-01T06:08:48;50.00;;;23.27;;
8050;SDS011;4068;42.158;24.732;2023-04-01T06:11:19;27.90;;;15.85;;
8050;SDS011;4068;42.158;24.732;2023-04-01T06:19:36;20.95;;;12.23;;
8050;SDS011;4068;42.158;24.732;2023-04-01T06:30:46;19.50;;;10.00;;
8050;SDS011;4068;42.158;24.732;2023-04-01T06:54:52;25.27;;;9.23;;
8050;SDS011;4068;42.158;24.732;2023-04-01T06:57:38;16.15;;;9.00;;
8050;SDS011;4068;42.158;24.732;2023-04-01T07:00:13;15.98;;;9.05;;
8050;SDS011;4068;42.158;24.732;2023-04-01T07:02:43;13.90;;;8.68;;
8050;SDS011;4068;42.158;24.732;2023-04-01T07:05:12;20.92;;;9.70;;
8050;SDS011;4068;42.158;24.732;2023-04-01T07:07:43;15.18;;;8.23;;
8050;SDS011;4068;42.158;24.732;2023-04-01T07:10:20;17.73;;;8.68;;
8050;SDS011;4068;42.158;24.732;2023-04-01T07:12:54;13.25;;;7.72;;
8050;SDS011;4068;42.158;24.732;2023-04-01T07:15:30;21.00;;;8.35;;
8050;SDS011;4068;42.158;24.732;2023-04-01T07:18:05;12.00;;;7.30;;
8050;SDS011;4068;42.158;24.732;2023-04-01T07:20:39;18.85;;;8.43;;
8050;SDS011;4068;42.158;24.732;2023-04-01T07:26:16;13.65;;;7.45;;
8050;SDS011;4068;42.158;24.732;2023-04-01T07:28:46;13.88;;;7.82;;
8050;SDS011;4068;42.158;24.732;2023-04-01T07:33:53;10.70;;;6.95;;
8050;SDS011;4068;42.158;24.732;2023-04-01T07:55:57;17.27;;;7.32;;
8050;SDS011;4068;42.158;24.732;2023-04-01T08:02:33;12.88;;;6.45;;
8050;SDS011;4068;42.158;24.732;2023-04-01T08:07:26;11.68;;;6.90;;
8050;SDS011;4068;42.158;24.732;2023-04-01T08:15:42;12.50;;;7.28;;
8050;SDS011;4068;42.158;24.732;2023-04-01T08:21:19;9.50;;;6.82;;
8050;SDS011;4068;42.158;24.732;2023-04-01T08:23:55;17.08;;;8.30;;
8050;SDS011;4068;42.158;24.732;2023-04-01T08:29:02;13.40;;;8.93;;
8050;SDS011;4068;42.158;24.732;2023-04-01T08:31:38;15.50;;;8.65;;
8050;SDS011;4068;42.158;24.732;2023-04-01T08:34:15;14.63;;;7.82;;
8050;SDS011;4068;42.158;24.732;2023-04-01T08:37:07;15.38;;;8.20;;
8050;SDS011;4068;42.158;24.732;2023-04-01T08:39:37;14.70;;;7.47;;
8050;SDS011;4068;42.158;24.732;2023-04-01T08:50:01;16.40;;;7.50;;
8050;SDS011;4068;42.158;24.732;2023-04-01T08:52:37;15.75;;;7.72;;
8050;SDS011;4068;42.158;24.732;2023-04-01T09:12:35;13.95;;;8.40;;
8050;SDS011;4068;42.158;24.732;2023-04-01T09:15:20;16.55;;;9.18;;
8050;SDS011;4068;42.158;24.732;2023-04-01T09:29:15;19.55;;;8.93;;
8050;SDS011;4068;42.158;24.732;2023-04-01T09:37:15;11.90;;;7.53;;
8050;SDS011;4068;42.158;24.732;2023-04-01T09:40:02;11.15;;;7.30;;
8050;SDS011;4068;42.158;24.732;2023-04-01T09:42:44;13.85;;;7.70;;
8050;SDS011;4068;42.158;24.732;2023-04-01T09:48:20;10.80;;;7.90;;
8050;SDS011;4068;42.158;24.732;2023-04-01T10:07:30;15.05;;;8.43;;
8050;SDS011;4068;42.158;24.732;2023-04-01T10:45:36;15.48;;;7.70;;
8050;SDS011;4068;42.158;24.732;2023-04-01T10:48:21;14.45;;;7.70;;
8050;SDS011;4068;42.158;24.732;2023-04-01T10:53:37;14.23;;;7.65;;
8050;SDS011;4068;42.158;24.732;2023-04-01T11:12:31;15.02;;;8.88;;
8050;SDS011;4068;42.158;24.732;2023-04-01T11:31:37;15.05;;;7.00;;
8050;SDS011;4068;42.158;24.732;2023-04-01T11:37:24;11.80;;;6.00;;
8050;SDS011;4068;42.158;24.732;2023-04-01T11:45:46;11.85;;;6.47;;
8050;SDS011;4068;42.158;24.732;2023-04-01T11:50:57;10.75;;;6.13;;
8050;SDS011;4068;42.158;24.732;2023-04-01T12:09:30;7.20;;;5.57;;
8050;SDS011;4068;42.158;24.732;2023-04-01T12:18:22;14.07;;;6.30;;
8050;SDS011;4068;42.158;24.732;2023-04-01T13:25:06;12.52;;;6.22;;
8050;SDS011;4068;42.158;24.732;2023-04-01T13:27:44;8.93;;;5.85;;
8050;SDS011;4068;42.158;24.732;2023-04-01T13:47:00;14.38;;;9.63;;
8050;SDS011;4068;42.158;24.732;2023-04-01T14:00:52;12.88;;;8.20;;
8050;SDS011;4068;42.158;24.732;2023-04-01T14:06:18;6.13;;;4.43;;
8050;SDS011;4068;42.158;24.732;2023-04-01T14:11:57;7.82;;;4.50;;
8050;SDS011;4068;42.158;24.732;2023-04-01T14:48:57;4.43;;;3.60;;
8050;SDS011;4068;42.158;24.732;2023-04-01T14:51:34;6.50;;;4.13;;
8050;SDS011;4068;42.158;24.732;2023-04-01T14:54:13;4.38;;;3.90;;
8050;SDS011;4068;42.158;24.732;2023-04-01T14:56:48;8.77;;;3.97;;
8050;SDS011;4068;42.158;24.732;2023-04-01T14:59:28;4.70;;;4.22;;
8050;SDS011;4068;42.158;24.732;2023-04-01T15:07:25;6.88;;;4.13;;
8050;SDS011;4068;42.158;24.732;2023-04-01T15:10:01;7.18;;;5.07;;
8050;SDS011;4068;42.158;24.732;2023-04-01T15:15:30;3.95;;;3.65;;
8050;SDS011;4068;42.158;24.732;2023-04-01T15:18:09;8.60;;;4.00;;
8050;SDS011;4068;42.158;24.732;2023-04-01T15:20:44;4.95;;;3.90;;
8050;SDS011;4068;42.158;24.732;2023-04-01T15:35:33;5.25;;;3.40;;
8050;SDS011;4068;42.158;24.732;2023-04-01T15:37:56;4.70;;;3.55;;
8050;SDS011;4068;42.158;24.732;2023-04-01T15:40:32;4.18;;;3.85;;
8050;SDS011;4068;42.158;24.732;2023-04-01T15:43:14;7.97;;;4.43;;
8050;SDS011;4068;42.158;24.732;2023-04-01T15:46:09;6.75;;;4.57;;
8050;SDS011;4068;42.158;24.732;2023-04-01T15:48:44;7.72;;;5.13;;
8050;SDS011;4068;42.158;24.732;2023-04-01T15:51:11;7.95;;;5.68;;
8050;SDS011;4068;42.158;24.732;2023-04-01T16:01:39;7.28;;;5.15;;
8050;SDS011;4068;42.158;24.732;2023-04-01T16:07:02;7.38;;;5.10;;
8050;SDS011;4068;42.158;24.732;2023-04-01T16:09:52;10.00;;;5.60;;
8050;SDS011;4068;42.158;24.732;2023-04-01T16:12:18;9.32;;;6.05;;
8050;SDS011;4068;42.158;24.732;2023-04-01T16:22:52;8.43;;;4.85;;
8050;SDS011;4068;42.158;24.732;2023-04-01T16:25:36;8.20;;;4.85;;
8050;SDS011;4068;42.158;24.732;2023-04-01T16:28:13;11.70;;;6.25;;
8050;SDS011;4068;42.158;24.732;2023-04-01T16:30:46;9.98;;;4.80;;
8050;SDS011;4068;42.158;24.732;2023-04-01T16:41:32;11.20;;;5.95;;
8050;SDS011;4068;42.158;24.732;2023-04-01T16:44:19;7.18;;;5.35;;
8050;SDS011;4068;42.158;24.732;2023-04-01T16:47:06;7.28;;;5.03;;
8050;SDS011;4068;42.158;24.732;2023-04-01T16:49:50;7.65;;;5.15;;
8050;SDS011;4068;42.158;24.732;2023-04-01T16:52:30;5.10;;;4.10;;
8050;SDS011;4068;42.158;24.732;2023-04-01T16:55:18;10.02;;;4.53;;
8050;SDS011;4068;42.158;24.732;2023-04-01T16:57:52;4.53;;;4.13;;
8050;SDS011;4068;42.158;24.732;2023-04-01T17:05:33;8.60;;;4.20;;
8050;SDS011;4068;42.158;24.732;2023-04-01T17:08:17;6.25;;;4.63;;
8050;SDS011;4068;42.158;24.732;2023-04-01T17:10:51;9.30;;;4.75;;
8050;SDS011;4068;42.158;24.732;2023-04-01T17:13:46;6.60;;;5.45;;
8050;SDS011;4068;42.158;24.732;2023-04-01T17:19:14;9.07;;;5.55;;
8050;SDS011;4068;42.158;24.732;2023-04-01T17:24:14;9.50;;;5.80;;
8050;SDS011;4068;42.158;24.732;2023-04-01T17:26:52;12.18;;;5.93;;
8050;SDS011;4068;42.158;24.732;2023-04-01T17:32:46;8.32;;;6.00;;
8050;SDS011;4068;42.158;24.732;2023-04-01T17:35:27;7.03;;;5.95;;
8050;SDS011;4068;42.158;24.732;2023-04-01T17:38:04;10.30;;;6.85;;
8050;SDS011;4068;42.158;24.732;2023-04-01T17:43:26;7.93;;;5.70;;
8050;SDS011;4068;42.158;24.732;2023-04-01T17:46:27;14.32;;;8.90;;
8050;SDS011;4068;42.158;24.732;2023-04-01T17:54:10;5.05;;;4.32;;
8050;SDS011;4068;42.158;24.732;2023-04-01T18:03:00;3.75;;;3.40;;
8050;SDS011;4068;42.158;24.732;2023-04-01T18:19:09;2.30;;;2.20;;
8050;SDS011;4068;42.158;24.732;2023-04-01T18:21:51;1.90;;;1.80;;
8050;SDS011;4068;42.158;24.732;2023-04-01T18:24:41;2.10;;;2.00;;
8050;SDS011;4068;42.158;24.732;2023-04-01T18:27:29;2.03;;;1.92;;
8050;SDS011;4068;42.158;24.732;2023-04-01T18:30:15;2.38;;;2.17;;
8050;SDS011;4068;42.158;24.732;2023-04-01T18:32:50;3.50;;;2.65;;
8050;SDS011;4068;42.158;24.732;2023-04-01T18:38:13;2.15;;;2.05;;
8050;SDS011;4068;42.158;24.732;2023-04-01T18:46:54;4.13;;;2.65;;
8050;SDS011;4068;42.158;24.732;2023-04-01T18:49:06;2.20;;;2.10;;
8050;SDS011;4068;42.158;24.732;2023-04-01T18:54:11;2.58;;;2.38;;
8050;SDS011;4068;42.158;24.732;2023-04-01T18:56:47;2.72;;;2.53;;
8050;SDS011;4068;42.158;24.732;2023-04-01T19:04:39;3.53;;;3.00;;
8050;SDS011;4068;42.158;24.732;2023-04-01T19:12:47;3.00;;;2.80;;
8050;SDS011;4068;42.158;24.732;2023-04-01T19:15:51;3.17;;;2.88;;
8050;SDS011;4068;42.158;24.732;2023-04-01T19:18:35;3.25;;;2.95;;
8050;SDS011;4068;42.158;24.732;2023-04-01T19:21:39;4.57;;;3.28;;
8050;SDS011;4068;42.158;24.732;2023-04-01T19:26:53;3.15;;;2.85;;
8050;SDS011;4068;42.158;24.732;2023-04-01T19:32:24;5.38;;;3.75;;
8050;SDS011;4068;42.158;24.732;2023-04-01T19:43:44;5.80;;;3.40;;
8050;SDS011;4068;42.158;24.732;2023-04-01T20:00:04;3.63;;;3.33;;
8050;SDS011;4068;42.158;24.732;2023-04-01T20:02:39;4.57;;;3.20;;
8050;SDS011;4068;42.158;24.732;2023-04-01T20:05:23;3.65;;;3.25;;
8050;SDS011;4068;42.158;24.732;2023-04-01T20:07:53;3.75;;;3.45;;
8050;SDS011;4068;42.158;24.732;2023-04-01T20:10:35;3.40;;;3.10;;
8050;SDS011;4068;42.158;24.732;2023-04-01T20:16:04;3.67;;;3.38;;
8050;SDS011;4068;42.158;24.732;2023-04-01T20:18:34;6.35;;;4.88;;
8050;SDS011;4068;42.158;24.732;2023-04-01T20:21:16;5.82;;;5.03;;
8050;SDS011;4068;42.158;24.732;2023-04-01T20:23:59;7.32;;;4.85;;
8050;SDS011;4068;42.158;24.732;2023-04-01T20:26:33;5.95;;;4.35;;
8050;SDS011;4068;42.158;24.732;2023-04-01T20:37:16;7.05;;;3.90;;
8050;SDS011;4068;42.158;24.732;2023-04-01T20:45:27;3.75;;;3.45;;
8050;SDS011;4068;42.158;24.732;2023-04-01T21:01:47;3.80;;;3.50;;
8050;SDS011;4068;42.158;24.732;2023-04-01T21:04:30;3.70;;;3.40;;
8050;SDS011;4068;42.158;24.732;2023-04-01T21:07:10;4.40;;;4.00;;
8050;SDS011;4068;42.158;24.732;2023-04-01T21:10:03;3.63;;;3.35;;
8050;SDS011;4068;42.158;24.732;2023-04-01T21:12:57;3.60;;;3.30;;
8050;SDS011;4068;42.158;24.732;2023-04-01T21:52:16;3.92;;;3.53;;
8050;SDS011;4068;42.158;24.732;2023-04-01T22:07:39;10.20;;;4.00;;
8050;SDS011;4068;42.158;24.732;2023-04-01T22:10:32;5.00;;;4.28;;
8050;SDS011;4068;42.158;24.732;2023-04-01T22:12:43;5.65;;;4.25;;
8050;SDS011;4068;42.158;24.732;2023-04-01T22:17:52;4.35;;;3.95;;
8050;SDS011;4068;42.158;24.732;2023-04-01T22:20:42;4.80;;;3.95;;
8050;SDS011;4068;42.158;24.732;2023-04-01T22:28:27;8.82;;;4.18;;
8050;SDS011;4068;42.158;24.732;2023-04-01T22:30:59;5.35;;;3.95;;
8050;SDS011;4068;42.158;24.732;2023-04-01T22:33:29;3.85;;;3.55;;
8050;SDS011;4068;42.158;24.732;2023-04-01T22:36:00;4.10;;;3.72;;
8050;SDS011;4068;42.158;24.732;2023-04-01T22:41:31;5.45;;;4.15;;
8050;SDS011;4068;42.158;24.732;2023-04-01T22:44:00;4.60;;;4.20;;
8050;SDS011;4068;42.158;24.732;2023-04-01T22:49:12;4.25;;;3.85;;
8050;SDS011;4068;42.158;24.732;2023-04-01T22:52:03;4.63;;;3.67;;
8050;SDS011;4068;42.158;24.732;2023-04-01T22:54:41;4.00;;;3.70;;
8050;SDS011;4068;42.158;24.732;2023-04-01T23:02:30;4.30;;;3.90;;
8050;SDS011;4068;42.158;24.732;2023-04-01T23:05:02;5.05;;;3.70;;
8050;SDS011;4068;42.158;24.732;2023-04-01T23:10:19;4.15;;;3.85;;
8050;SDS011;4068;42.158;24.732;2023-04-01T23:12:51;3.90;;;3.60;;
8050;SDS011;4068;42.158;24.732;2023-04-01T23:15:20;4.28;;;3.67;;
8050;SDS011;4068;42.158;24.732;2023-04-01T23:35:48;4.40;;;4.00;;
8050;SDS011;4068;42.158;24.732;2023-04-01T23:38:13;3.75;;;3.45;;
8050;SDS011;4068;42.158;24.732;2023-04-01T23:40:40;5.28;;;3.90;;
8050;SDS011;4068;42.158;24.732;2023-04-01T23:43:19;4.05;;;3.75;;
8050;SDS011;4068;42.158;24.732;2023-04-01T23:45:52;3.88;;;3.58;;
8050;SDS011;4068;42.158;24.732;2023-04-01T23:48:20;3.72;;;3.28;;
8050;SDS011;4068;42.158;24.732;2023-04-01T23:50:53;4.00;;;3.70;;
8050;SDS011;4068;42.158;24.732;2023-04-01T23:53:20;4.00;;;3.63;;
8050;SDS011;4068;42.158;24.732;2023-04-01T23:55:53;4.18;;;3.83;;
8050;SDS011;4068;42.158;24.732;2023-04-01T23:58:53;4.13;;;3.72;;
